createdAt,value
2023-03-18T00:12:02.686Z,1007.69
2023-03-18T00:27:03.292Z,1007.60
2023-03-18T00:42:03.866Z,1007.61
2023-03-18T00:57:05.190Z,1007.46
2023-03-18T01:12:06.517Z,1007.50
2023-03-18T01:27:06.674Z,1007.37
2023-03-18T01:42:07.367Z,1007.35
2023-03-18T01:57:07.909Z,1007.31
2023-03-18T02:12:08.445Z,1007.41
2023-03-18T02:27:09.047Z,1007.39
2023-03-18T02:42:09.659Z,1007.43
2023-03-18T02:57:10.275Z,1007.31
2023-03-18T03:12:10.855Z,1007.39
2023-03-18T03:27:11.436Z,1007.38
2023-03-18T03:42:12.471Z,1007.40
2023-03-18T03:57:13.278Z,1007.38
2023-03-18T04:12:14.616Z,1007.45
2023-03-18T04:27:14.810Z,1007.60
2023-03-18T04:42:15.430Z,1007.70
2023-03-18T04:57:16.059Z,1007.84
2023-03-18T05:12:16.612Z,1007.81
2023-03-18T05:27:17.279Z,1007.86
2023-03-18T05:42:17.456Z,1007.75
2023-03-18T05:57:18.454Z,1007.80
2023-03-18T06:12:19.015Z,1007.84
2023-03-18T06:27:19.182Z,1007.94
2023-03-18T06:42:19.763Z,1008.20
2023-03-18T06:57:20.505Z,1008.26
2023-03-18T07:12:21.447Z,1008.41
2023-03-18T07:27:22.043Z,1008.59
2023-03-18T07:42:22.203Z,1008.72
2023-03-18T07:57:23.309Z,1008.77
2023-03-18T08:12:24.389Z,1009.07
2023-03-18T08:27:25.421Z,1009.01
2023-03-18T08:42:25.985Z,1009.17
2023-03-18T08:57:26.200Z,1009.20
2023-03-18T09:12:26.902Z,1009.26
2023-03-18T09:27:27.497Z,1009.46
2023-03-18T09:42:28.526Z,1009.30
2023-03-18T09:57:30.084Z,1009.43
2023-03-18T10:12:29.673Z,1009.41
2023-03-18T10:27:30.811Z,1009.42
2023-03-18T10:42:31.345Z,1009.40
2023-03-18T10:57:32.450Z,1009.39
2023-03-18T11:12:33.534Z,1009.37
2023-03-18T11:27:34.137Z,1009.43
2023-03-18T11:42:34.745Z,1009.34
2023-03-18T11:57:34.838Z,1009.38
2023-03-18T12:12:35.806Z,1009.37
2023-03-18T12:27:36.052Z,1009.45
2023-03-18T12:42:36.595Z,1009.44
2023-03-18T12:57:37.177Z,1009.52
2023-03-18T13:12:37.730Z,1009.43
2023-03-18T13:27:38.327Z,1009.34
2023-03-18T13:42:38.420Z,1009.42
2023-03-18T13:57:39.059Z,1009.31
2023-03-18T14:12:39.574Z,1009.26
2023-03-18T14:27:39.725Z,1009.28
2023-03-18T14:42:40.316Z,1009.14
2023-03-18T14:57:41.439Z,1009.05
2023-03-18T15:12:43.107Z,1009.06
2023-03-18T15:27:43.009Z,1009.17
2023-03-18T15:42:43.193Z,1009.23
2023-03-18T15:57:43.789Z,1009.25
2023-03-18T16:12:43.970Z,1009.43
2023-03-18T16:27:44.552Z,1009.57
2023-03-18T16:42:44.631Z,1009.77
2023-03-18T16:57:44.989Z,1009.83
2023-03-18T17:12:45.756Z,1009.90
2023-03-18T17:27:45.618Z,1010.03
2023-03-18T17:42:46.727Z,1010.09
2023-03-18T17:57:46.976Z,1010.21
2023-03-18T18:12:48.547Z,1010.10
2023-03-18T18:27:50.604Z,1010.18
2023-03-18T18:42:51.326Z,1010.28
2023-03-18T18:57:52.245Z,1010.27
2023-03-18T19:12:52.463Z,1010.28
2023-03-18T19:27:53.197Z,1010.28
2023-03-18T19:42:53.058Z,1010.30
2023-03-18T19:57:54.004Z,1010.40
2023-03-18T20:12:54.835Z,1010.63
2023-03-18T20:27:56.277Z,1010.69
2023-03-18T20:42:56.954Z,1010.74
2023-03-18T20:57:57.232Z,1010.82
2023-03-18T21:12:58.010Z,1010.83
2023-03-18T21:27:58.208Z,1010.85
2023-03-18T21:42:58.774Z,1010.89
2023-03-18T21:57:59.371Z,1010.85
2023-03-18T22:12:59.476Z,1010.94
2023-03-18T22:28:00.146Z,1010.95
2023-03-18T22:43:00.679Z,1010.96
2023-03-18T22:58:01.351Z,1010.82
2023-03-18T23:13:01.758Z,1010.79
2023-03-18T23:28:01.961Z,1010.87
2023-03-18T23:43:02.566Z,1010.79
2023-03-18T23:58:03.615Z,1010.75
